Skip Navigation Links Skip Navigation Links

Current Weather

Heathrow, London

For information only: do not use for flight planning or navigation.
Latest weather
Observation time Thursday, December 14, 2017 1:50 AM GMT
Local time Thursday, December 14, 2017 2:05 AM GMT
Flight conditions Visual Meteorological Conditions
Winds
Wind direction West-Southwest (250°)
Wind speed 20 mph
Visibility 6.2 mi.
Sky condition
Ceiling unlimited
Cloud layer few clouds 4,100 ft.
Temperature 39°F
Dewpoint 32°F
Altimeter 29.32 in.Hg
Derived measurements
Relative humidity 75%
Wind chill 30°F
Density altitude -544 ft.
Remarks
Fully automated report.
No significant changes expected in the next two hours.
METAR EGLL 140150Z AUTO 25017KT 9999 FEW041 04/00 Q0993 NOSIG

Settings

Location code

InnerDrive.Weather 4.0.6144.1 Release CLR 4.0.30319.36366
Copyright ©2015 Inner Drive Technology. All rights reserved. Portions Copyright ©1986-2015 David Braverman.

Find weather

Site navigation


Skip Navigation Links

Place info

Page info

PayPal - The safer, easier way to pay online!

Return home.

Copyright ©2017 Inner Drive Technology. Purveyors of fine, hand-crafted computer software. Page printed 2017-12-14T02:05:25 UTC.